createdAt,value
2023-07-03T00:00:40.380Z,98317.00
2023-07-03T00:03:07.908Z,98320.00
2023-07-03T00:05:36.456Z,98319.00
2023-07-03T00:08:03.970Z,98322.00
2023-07-03T00:10:31.427Z,98314.00
2023-07-03T00:12:58.918Z,98318.00
2023-07-03T00:15:26.382Z,98309.00
2023-07-03T00:17:53.926Z,98306.00
2023-07-03T00:20:21.467Z,98309.00
2023-07-03T00:22:49.587Z,98308.00
2023-07-03T00:25:17.160Z,98305.00
2023-07-03T00:27:45.754Z,98301.00
2023-07-03T00:30:14.488Z,98304.00
2023-07-03T00:32:42.099Z,98306.00
2023-07-03T00:35:10.072Z,98303.00
2023-07-03T00:37:37.543Z,98305.00
2023-07-03T00:40:08.386Z,98307.00
2023-07-03T00:42:36.148Z,98298.00
2023-07-03T00:45:10.058Z,98296.00
2023-07-03T00:47:39.609Z,98301.00
2023-07-03T00:50:08.088Z,98289.00
2023-07-03T00:52:35.829Z,98293.00
2023-07-03T00:55:04.490Z,98297.00
2023-07-03T00:57:32.525Z,98286.00
2023-07-03T01:00:01.082Z,98289.00
2023-07-03T01:03:03.704Z,98297.00
2023-07-03T01:05:41.557Z,98287.00
2023-07-03T01:08:13.107Z,98293.00
2023-07-03T01:10:42.658Z,98292.00
2023-07-03T01:13:18.757Z,98287.00
2023-07-03T01:15:48.202Z,98294.00
2023-07-03T01:18:16.902Z,98292.00
2023-07-03T01:21:23.755Z,98293.00
2023-07-03T01:24:18.772Z,98299.00
2023-07-03T01:26:47.943Z,98289.00
2023-07-03T01:29:17.552Z,98288.00
2023-07-03T01:31:46.150Z,98292.00
2023-07-03T01:34:14.498Z,98293.00
2023-07-03T01:36:43.284Z,98298.00
2023-07-03T01:39:11.309Z,98299.00
2023-07-03T01:41:39.843Z,98290.00
2023-07-03T01:44:07.901Z,98282.00
2023-07-03T01:46:36.358Z,98294.00
2023-07-03T01:49:04.002Z,98293.00
2023-07-03T01:52:23.109Z,98282.00
2023-07-03T01:55:21.837Z,98293.00
2023-07-03T01:58:33.972Z,98298.00
2023-07-03T02:01:23.077Z,98291.00
2023-07-03T02:04:12.067Z,98287.00
2023-07-03T02:06:45.860Z,98292.00
2023-07-03T04:43:53.015Z,98302.00
2023-07-03T04:46:25.217Z,98305.00
2023-07-03T04:49:00.706Z,98316.00
2023-07-03T04:51:32.639Z,98302.00
2023-07-03T04:54:02.108Z,98315.00
2023-07-03T04:56:33.630Z,98306.00
2023-07-03T04:59:01.221Z,98304.00
2023-07-03T05:11:17.996Z,98308.00
2023-07-03T05:13:45.727Z,98316.00
2023-07-03T05:16:13.328Z,98326.00
2023-07-03T05:18:41.525Z,98317.00
2023-07-03T05:21:09.477Z,98320.00
2023-07-03T05:23:37.403Z,98329.00
2023-07-03T05:26:05.339Z,98329.00
2023-07-03T05:28:33.436Z,98331.00
2023-07-03T05:31:01.886Z,98331.00
2023-07-03T05:33:31.768Z,98335.00
2023-07-03T05:36:03.761Z,98330.00
2023-07-03T05:38:32.097Z,98335.00
2023-07-03T05:40:59.622Z,98337.00
2023-07-03T05:43:28.136Z,98341.00
2023-07-03T05:45:55.660Z,98338.00
2023-07-03T05:48:26.013Z,98343.00
2023-07-03T05:50:53.580Z,98341.00
2023-07-03T05:53:22.573Z,98337.00
2023-07-03T05:55:59.485Z,98349.00
2023-07-03T05:58:28.977Z,98353.00
2023-07-03T06:00:57.058Z,98357.00
2023-07-03T06:03:26.415Z,98351.00
2023-07-03T06:05:54.356Z,98352.00
2023-07-03T06:08:22.162Z,98352.00
2023-07-03T06:10:49.631Z,98356.00
2023-07-03T06:13:17.877Z,98352.00
2023-07-03T06:15:45.733Z,98361.00
2023-07-03T06:18:13.469Z,98362.00
2023-07-03T06:20:41.017Z,98362.00
2023-07-03T06:23:08.669Z,98359.00
2023-07-03T06:25:36.249Z,98363.00
2023-07-03T06:28:04.251Z,98364.00
2023-07-03T06:30:31.742Z,98365.00
2023-07-03T06:32:59.292Z,98354.00
2023-07-03T06:35:27.255Z,98363.00
2023-07-03T06:37:57.338Z,98368.00
2023-07-03T06:40:25.010Z,98371.00
2023-07-03T06:42:54.475Z,98367.00
2023-07-03T06:45:22.017Z,98372.00
2023-07-03T06:47:49.585Z,98371.00
2023-07-03T06:50:17.658Z,98381.00
2023-07-03T06:52:48.670Z,98386.00
2023-07-03T06:55:16.317Z,98377.00
2023-07-03T06:57:43.868Z,98375.00
2023-07-03T07:00:12.506Z,98366.00
2023-07-03T07:02:40.176Z,98367.00
2023-07-03T07:05:08.578Z,98376.00
2023-07-03T07:07:36.173Z,98379.00
2023-07-03T07:10:04.543Z,98380.00
2023-07-03T07:12:32.080Z,98374.00
2023-07-03T07:14:59.562Z,98385.00
2023-07-03T07:17:35.591Z,98381.00
2023-07-03T07:20:14.156Z,98383.00
2023-07-03T07:22:41.623Z,98376.00
2023-07-03T07:25:09.723Z,98372.00
2023-07-03T07:27:37.226Z,98371.00
2023-07-03T07:30:05.568Z,98378.00
2023-07-03T07:32:33.048Z,98379.00
2023-07-03T07:35:00.558Z,98376.00
2023-07-03T07:37:28.001Z,98378.00
2023-07-03T07:39:55.446Z,98381.00
2023-07-03T07:42:22.953Z,98378.00
2023-07-03T07:44:50.559Z,98379.00
2023-07-03T07:47:18.045Z,98385.00
2023-07-03T07:49:46.127Z,98378.00
2023-07-03T07:52:13.686Z,98379.00
2023-07-03T07:54:41.178Z,98378.00
2023-07-03T07:57:08.975Z,98366.00
2023-07-03T07:59:37.456Z,98388.00
2023-07-03T08:02:05.404Z,98381.00
2023-07-03T08:04:34.539Z,98387.00
2023-07-03T08:07:02.215Z,98384.00
2023-07-03T08:09:29.743Z,98381.00
2023-07-03T08:11:57.306Z,98382.00
2023-07-03T08:14:24.862Z,98380.00
2023-07-03T08:16:52.578Z,98389.00
2023-07-03T08:19:20.271Z,98382.00
2023-07-03T08:21:47.781Z,98382.00
2023-07-03T08:24:15.508Z,98376.00
2023-07-03T08:26:50.248Z,98374.00
2023-07-03T08:29:18.151Z,98373.00
2023-07-03T08:31:45.752Z,98375.00
2023-07-03T08:34:13.292Z,98380.00
2023-07-03T08:39:11.109Z,98386.00
2023-07-03T08:41:56.224Z,98381.00
2023-07-03T08:44:23.889Z,98388.00
2023-07-03T08:47:09.666Z,98392.00
2023-07-03T08:49:39.318Z,98392.00
2023-07-03T08:52:08.575Z,98389.00
2023-07-03T08:54:38.898Z,98386.00
2023-07-03T08:57:12.006Z,98386.00
2023-07-03T08:59:39.990Z,98387.00
2023-07-03T09:02:22.257Z,98386.00
2023-07-03T09:05:38.558Z,98390.00
2023-07-03T09:08:15.134Z,98401.00
2023-07-03T09:10:51.034Z,98396.00
2023-07-03T09:13:44.531Z,98407.00
2023-07-03T09:16:22.697Z,98399.00
2023-07-03T09:19:07.632Z,98399.00
2023-07-03T09:21:36.950Z,98402.00
2023-07-03T09:24:27.617Z,98390.00
2023-07-03T09:27:24.807Z,98393.00
2023-07-03T09:29:53.205Z,98401.00
2023-07-03T09:32:31.718Z,98397.00
2023-07-03T09:35:21.308Z,98404.00
2023-07-03T09:37:59.536Z,98398.00
2023-07-03T09:40:38.866Z,98399.00
2023-07-03T09:43:27.198Z,98401.00
2023-07-03T09:46:17.778Z,98392.00
2023-07-03T09:48:45.933Z,98392.00
2023-07-03T09:51:30.322Z,98388.00
2023-07-03T09:54:06.996Z,98400.00
2023-07-03T09:56:35.018Z,98397.00
2023-07-03T09:59:06.897Z,98410.00
2023-07-03T10:07:09.003Z,98397.00
2023-07-03T10:12:45.569Z,98397.00
2023-07-03T10:15:30.224Z,98409.00
2023-07-03T10:18:15.210Z,98399.00
2023-07-03T10:20:45.385Z,98407.00
2023-07-03T10:23:29.077Z,98390.00
2023-07-03T10:26:39.524Z,98413.00
2023-07-03T10:29:27.591Z,98420.00
2023-07-03T10:32:17.533Z,98407.00
2023-07-03T10:35:29.487Z,98399.00
2023-07-03T10:38:12.728Z,98409.00
2023-07-03T10:40:56.959Z,98406.00
2023-07-03T10:43:34.024Z,98404.00
2023-07-03T10:46:03.477Z,98413.00
2023-07-03T10:48:34.641Z,98418.00
2023-07-03T10:51:48.226Z,98405.00
2023-07-03T10:54:31.169Z,98407.00
2023-07-03T10:57:06.625Z,98405.00
2023-07-03T10:59:43.784Z,98395.00
2023-07-03T11:02:42.725Z,98384.00
2023-07-03T11:05:36.072Z,98391.00
2023-07-03T11:08:55.864Z,98390.00
2023-07-03T11:12:34.874Z,98408.00
2023-07-03T11:16:03.806Z,98399.00
2023-07-03T11:28:51.592Z,98385.00
2023-07-03T11:31:21.241Z,98385.00
2023-07-03T11:44:50.049Z,98376.00
2023-07-03T11:47:32.267Z,98388.00
2023-07-03T11:50:06.178Z,98390.00
2023-07-03T11:52:42.477Z,98378.00
2023-07-03T11:55:20.170Z,98380.00
2023-07-03T11:58:14.517Z,98381.00
2023-07-03T12:00:45.619Z,98386.00
2023-07-03T12:03:15.685Z,98381.00
2023-07-03T12:05:49.324Z,98365.00
2023-07-03T12:08:19.626Z,98380.00
2023-07-03T12:10:56.225Z,98386.00
2023-07-03T12:13:47.655Z,98378.00
2023-07-03T12:16:26.044Z,98367.00
2023-07-03T12:19:11.551Z,98379.00
2023-07-03T12:21:47.629Z,98374.00
2023-07-03T12:24:33.448Z,98372.00
2023-07-03T12:27:08.185Z,98383.00
2023-07-03T12:29:49.369Z,98381.00
2023-07-03T12:32:49.488Z,98376.00
2023-07-03T12:35:28.485Z,98377.00
2023-07-03T12:38:06.703Z,98386.00
2023-07-03T12:40:41.873Z,98377.00
2023-07-03T12:43:10.788Z,98370.00
2023-07-03T12:45:38.459Z,98381.00
2023-07-03T12:48:24.356Z,98368.00
2023-07-03T12:50:57.857Z,98354.00
2023-07-03T12:53:35.081Z,98363.00
2023-07-03T12:56:10.522Z,98368.00
2023-07-03T12:58:39.004Z,98367.00
2023-07-03T13:01:09.300Z,98363.00
2023-07-03T13:03:43.064Z,98349.00
2023-07-03T13:06:29.493Z,98370.00
2023-07-03T13:08:59.852Z,98360.00
2023-07-03T13:11:46.097Z,98369.00
2023-07-03T13:14:29.394Z,98359.00
2023-07-03T13:17:02.487Z,98352.00
2023-07-03T13:19:37.436Z,98360.00
2023-07-03T13:22:19.509Z,98372.00
2023-07-03T13:24:52.073Z,98365.00
2023-07-03T13:27:28.245Z,98370.00
2023-07-03T13:30:36.782Z,98371.00
2023-07-03T13:33:15.168Z,98362.00
2023-07-03T13:35:49.691Z,98361.00
2023-07-03T13:38:27.726Z,98362.00
2023-07-03T13:41:00.347Z,98380.00
2023-07-03T13:43:33.652Z,98370.00
2023-07-03T13:46:02.124Z,98366.00
2023-07-03T13:48:30.654Z,98378.00
2023-07-03T13:50:58.509Z,98365.00
2023-07-03T13:53:27.748Z,98361.00
2023-07-03T13:55:55.316Z,98367.00
2023-07-03T13:58:22.879Z,98366.00
2023-07-03T14:00:50.532Z,98373.00
2023-07-03T14:03:18.294Z,98378.00
2023-07-03T14:05:45.968Z,98366.00
2023-07-03T14:08:13.780Z,98368.00
2023-07-03T14:10:41.368Z,98352.00
2023-07-03T14:13:11.010Z,98365.00
2023-07-03T14:15:39.547Z,98366.00
2023-07-03T14:18:07.188Z,98359.00
2023-07-03T14:20:34.781Z,98356.00
2023-07-03T14:23:04.508Z,98377.00
2023-07-03T14:25:32.698Z,98370.00
2023-07-03T14:28:01.396Z,98381.00
2023-07-03T14:30:28.948Z,98376.00
2023-07-03T14:32:56.763Z,98378.00
2023-07-03T14:35:25.385Z,98371.00
2023-07-03T14:37:53.234Z,98372.00
2023-07-03T14:40:21.020Z,98377.00
2023-07-03T14:42:48.773Z,98364.00
2023-07-03T14:45:16.804Z,98362.00
2023-07-03T14:47:44.406Z,98364.00
2023-07-03T14:50:13.307Z,98351.00
2023-07-03T14:52:49.265Z,98352.00
2023-07-03T14:55:19.049Z,98358.00
2023-07-03T14:57:46.990Z,98357.00
2023-07-03T15:00:15.745Z,98332.00
2023-07-03T15:02:47.235Z,98301.00
2023-07-03T15:05:16.356Z,98306.00
2023-07-03T15:07:49.945Z,98292.00
2023-07-03T15:10:18.859Z,98292.00
2023-07-03T15:12:47.233Z,98296.00
2023-07-03T15:15:15.337Z,98285.00
2023-07-03T15:17:43.107Z,98295.00
2023-07-03T15:20:11.862Z,98295.00
2023-07-03T15:22:39.348Z,98290.00
2023-07-03T15:25:07.761Z,98284.00
2023-07-03T15:27:35.373Z,98292.00
2023-07-03T15:30:03.935Z,98291.00
2023-07-03T15:32:32.818Z,98284.00
2023-07-03T15:35:00.367Z,98286.00
2023-07-03T15:37:27.975Z,98292.00
2023-07-03T15:39:55.958Z,98291.00
2023-07-03T15:42:24.307Z,98273.00
2023-07-03T15:44:59.283Z,98283.00
2023-07-03T15:47:27.844Z,98272.00
2023-07-03T15:49:58.524Z,98279.00
2023-07-03T15:52:26.863Z,98264.00
2023-07-03T15:54:54.724Z,98251.00
2023-07-03T15:57:22.944Z,98267.00
2023-07-03T15:59:50.792Z,98264.00
2023-07-03T16:02:18.367Z,98267.00
2023-07-03T16:04:45.981Z,98294.00
2023-07-03T16:07:13.483Z,98279.00
2023-07-03T16:09:40.953Z,98266.00
2023-07-03T16:12:08.631Z,98257.00
2023-07-03T16:14:36.121Z,98263.00
2023-07-03T16:17:03.678Z,98267.00
2023-07-03T16:19:32.009Z,98273.00
2023-07-03T16:21:59.526Z,98272.00
2023-07-03T16:24:26.989Z,98257.00
2023-07-03T16:26:54.460Z,98275.00
2023-07-03T16:29:21.960Z,98261.00
2023-07-03T16:31:49.619Z,98262.00
2023-07-03T16:34:17.162Z,98301.00
2023-07-03T16:36:44.608Z,98304.00
2023-07-03T16:39:12.480Z,98297.00
2023-07-03T16:41:40.935Z,98283.00
2023-07-03T16:44:08.436Z,98294.00
2023-07-03T16:46:39.580Z,98292.00
2023-07-03T16:49:08.087Z,98290.00
2023-07-03T16:51:35.583Z,98294.00
2023-07-03T16:54:03.505Z,98302.00
2023-07-03T16:56:31.115Z,98295.00
2023-07-03T16:58:59.649Z,98296.00
2023-07-03T17:01:30.877Z,98302.00
2023-07-03T17:03:59.368Z,98292.00
2023-07-03T17:06:36.406Z,98280.00
2023-07-03T17:09:05.121Z,98282.00
2023-07-03T17:11:32.838Z,98295.00
2023-07-03T17:14:01.214Z,98298.00
2023-07-03T17:16:29.988Z,98289.00
2023-07-03T17:18:57.954Z,98292.00
2023-07-03T17:21:26.556Z,98290.00
2023-07-03T17:24:06.285Z,98279.00
2023-07-03T17:26:34.424Z,98290.00
2023-07-03T17:29:04.841Z,98281.00
2023-07-03T17:31:32.937Z,98294.00
2023-07-03T17:34:01.272Z,98272.00
2023-07-03T17:36:29.428Z,98290.00
2023-07-03T17:38:56.992Z,98281.00
2023-07-03T17:41:24.965Z,98278.00
2023-07-03T17:43:53.112Z,98272.00
2023-07-03T17:46:20.627Z,98281.00
2023-07-03T17:48:48.503Z,98283.00
2023-07-03T17:51:16.102Z,98286.00
2023-07-03T17:53:45.739Z,98285.00
2023-07-03T17:56:13.993Z,98284.00
2023-07-03T17:58:43.923Z,98288.00
2023-07-03T18:01:13.104Z,98282.00
2023-07-03T18:03:41.578Z,98282.00
2023-07-03T18:06:13.652Z,98270.00
2023-07-03T18:08:41.640Z,98270.00
2023-07-03T18:11:09.265Z,98271.00
2023-07-03T18:13:37.665Z,98278.00
2023-07-03T18:16:05.499Z,98262.00
2023-07-03T18:18:33.183Z,98274.00
2023-07-03T18:21:01.110Z,98286.00
2023-07-03T18:23:28.784Z,98284.00
2023-07-03T18:25:56.813Z,98287.00
2023-07-03T18:28:25.205Z,98292.00
2023-07-03T18:31:04.450Z,98283.00
2023-07-03T18:33:34.908Z,98299.00
2023-07-03T18:36:03.408Z,98301.00
2023-07-03T18:38:31.745Z,98298.00
2023-07-03T18:41:06.864Z,98299.00
2023-07-03T18:43:34.642Z,98294.00
2023-07-03T18:46:02.222Z,98288.00
2023-07-03T18:48:29.848Z,98283.00
2023-07-03T18:50:57.375Z,98292.00
2023-07-03T18:53:25.411Z,98289.00
2023-07-03T18:55:54.202Z,98292.00
2023-07-03T18:58:21.977Z,98305.00
2023-07-03T19:00:50.105Z,98290.00
2023-07-03T19:03:17.914Z,98299.00
2023-07-03T19:06:09.829Z,98306.00
2023-07-03T19:08:37.913Z,98305.00
2023-07-03T19:11:07.775Z,98314.00
2023-07-03T19:13:35.800Z,98306.00
2023-07-03T19:16:03.514Z,98312.00
2023-07-03T19:18:31.278Z,98308.00
2023-07-03T19:20:58.732Z,98310.00
2023-07-03T19:23:26.670Z,98309.00
2023-07-03T19:26:00.126Z,98317.00
2023-07-03T19:28:27.990Z,98317.00
2023-07-03T19:31:00.675Z,98315.00
2023-07-03T19:33:31.002Z,98325.00
2023-07-03T19:36:00.557Z,98323.00
2023-07-03T19:38:28.635Z,98331.00
2023-07-03T19:40:57.055Z,98326.00
2023-07-03T19:43:24.510Z,98326.00
2023-07-03T19:45:52.078Z,98330.00
2023-07-03T19:48:19.731Z,98328.00
2023-07-03T19:50:49.187Z,98335.00
2023-07-03T19:53:17.708Z,98335.00
2023-07-03T19:55:45.739Z,98340.00
2023-07-03T19:58:13.585Z,98347.00
2023-07-03T20:00:41.433Z,98347.00
2023-07-03T20:03:11.500Z,98357.00
2023-07-03T20:05:42.828Z,98355.00
2023-07-03T20:08:10.297Z,98361.00
2023-07-03T20:10:39.005Z,98359.00
2023-07-03T20:13:06.605Z,98369.00
2023-07-03T20:15:34.105Z,98373.00
2023-07-03T20:18:01.764Z,98371.00
2023-07-03T20:20:29.625Z,98379.00
2023-07-03T20:22:58.176Z,98374.00
2023-07-03T20:25:25.901Z,98375.00
2023-07-03T20:27:54.397Z,98380.00
2023-07-03T20:30:22.447Z,98381.00
2023-07-03T20:32:50.099Z,98378.00
2023-07-03T20:35:19.209Z,98385.00
2023-07-03T20:37:46.859Z,98382.00
2023-07-03T20:40:14.514Z,98381.00
2023-07-03T20:42:42.367Z,98375.00
2023-07-03T20:45:11.417Z,98373.00
2023-07-03T20:47:39.045Z,98378.00
2023-07-03T20:50:07.949Z,98377.00
2023-07-03T20:52:41.059Z,98382.00
2023-07-03T20:55:36.663Z,98380.00
2023-07-03T20:58:04.385Z,98383.00
2023-07-03T21:00:32.014Z,98387.00
2023-07-03T21:02:59.675Z,98386.00
2023-07-03T21:05:27.989Z,98374.00
2023-07-03T21:07:56.395Z,98383.00
2023-07-03T21:10:23.840Z,98380.00
2023-07-03T21:12:51.322Z,98382.00
2023-07-03T21:15:20.059Z,98387.00
2023-07-03T21:17:48.237Z,98385.00
2023-07-03T21:20:15.842Z,98385.00
2023-07-03T21:22:43.305Z,98388.00
2023-07-03T21:25:12.027Z,98383.00
2023-07-03T21:27:39.470Z,98391.00
2023-07-03T21:30:08.371Z,98384.00
2023-07-03T21:32:36.724Z,98390.00
2023-07-03T21:35:04.469Z,98394.00
2023-07-03T21:37:32.829Z,98391.00
2023-07-03T21:40:00.398Z,98384.00
2023-07-03T21:42:27.892Z,98389.00
2023-07-03T21:44:55.373Z,98390.00
2023-07-03T21:47:22.929Z,98389.00
2023-07-03T21:49:50.617Z,98394.00
2023-07-03T21:52:18.074Z,98391.00
2023-07-03T21:54:48.833Z,98393.00
2023-07-03T21:57:19.373Z,98401.00
2023-07-03T21:59:50.394Z,98395.00
2023-07-03T22:02:17.933Z,98393.00
2023-07-03T22:04:45.600Z,98389.00
2023-07-03T22:07:13.786Z,98386.00
2023-07-03T22:09:41.302Z,98386.00
2023-07-03T22:12:12.965Z,98382.00
2023-07-03T22:14:40.774Z,98386.00
2023-07-03T22:17:08.400Z,98376.00
2023-07-03T22:19:39.794Z,98371.00
2023-07-03T22:22:08.441Z,98379.00
2023-07-03T22:24:35.961Z,98375.00
2023-07-03T22:27:07.184Z,98374.00
2023-07-03T22:29:36.795Z,98368.00
2023-07-03T22:32:04.842Z,98380.00
2023-07-03T22:34:32.360Z,98378.00
2023-07-03T22:36:59.845Z,98382.00
2023-07-03T22:39:27.333Z,98387.00
2023-07-03T22:41:54.833Z,98394.00
2023-07-03T22:44:22.332Z,98392.00
2023-07-03T22:46:53.575Z,98382.00
2023-07-03T22:49:25.517Z,98391.00
2023-07-03T22:51:53.681Z,98391.00
2023-07-03T22:54:22.973Z,98390.00
2023-07-03T22:56:50.728Z,98397.00
2023-07-03T22:59:18.329Z,98402.00
2023-07-03T23:01:49.581Z,98388.00
2023-07-03T23:04:17.905Z,98392.00
2023-07-03T23:06:47.234Z,98395.00
2023-07-03T23:09:17.958Z,98395.00
2023-07-03T23:11:45.644Z,98392.00
2023-07-03T23:14:16.782Z,98403.00
2023-07-03T23:16:47.531Z,98413.00
2023-07-03T23:19:17.896Z,98410.00
2023-07-03T23:21:53.084Z,98416.00
2023-07-03T23:24:21.955Z,98417.00
2023-07-03T23:26:53.769Z,98414.00
2023-07-03T23:29:22.315Z,98407.00
2023-07-03T23:31:51.019Z,98407.00
2023-07-03T23:34:18.824Z,98414.00
2023-07-03T23:36:49.661Z,98417.00
2023-07-03T23:39:19.260Z,98411.00
2023-07-03T23:41:47.233Z,98409.00
2023-07-03T23:44:15.914Z,98414.00
2023-07-03T23:46:43.492Z,98411.00
2023-07-03T23:49:11.324Z,98409.00
2023-07-03T23:51:38.821Z,98399.00
2023-07-03T23:54:07.080Z,98398.00
2023-07-03T23:56:35.479Z,98390.00
2023-07-03T23:59:05.053Z,98387.00
